Terminal Aerodrome Forecast
Issued by NWS

Home | Current Version | Previous Version | Graphics & Text | Print | Product List | Glossary On
Versions: 1 2 3 4 5 6 7 8 9 10 11 12 13 14 15 16 17 18 19 20 21 22 23 24 25
000
FTUS43 KGRB 250300 AAB
TAFMTW
TAF AMD
KMTW 250314Z 2503/2524 20006KT 6SM BR BKN025 BKN070 WS015/24035KT
      TEMPO 2503/2506 4SM BR
     FM250600 23007KT 4SM BR SCT009 OVC015
      TEMPO 2506/2510 2SM BR BKN009
     FM251000 27009KT P6SM SCT012 WS017/30035KT
     FM251500 28015G24KT P6SM SKC
     FM252300 27010KT P6SM SKC=

USA.gov is the U.S. government's official web portal to all federal, state and local government web resources and services.